Time;durP1;ratioP1;P1;durP2;ratioP2;P2;SDS_P1;SDS_P2;PMS_P1;PMS_P2;Temp;Humidity;BMP_temperature;BMP_pressure;BME280_temperature;BME280_humidity;BME280_pressure;Samples;Min_cycle;Max_cycle;Signal;HPM_P1;HPM_P2
2023/07/20 00:00:53;;;;;;;7.97;2.80;;;;;;;18.51;60.35;150700.38;5007365;28;20242;-66
2023/07/20 00:03:23;;;;;;;3.93;2.40;;;;;;;18.47;61.17;150689.06;5003416;28;20730;-66
2023/07/20 00:05:49;;;;;;;6.27;2.43;;;;;;;18.51;59.97;150699.09;5005825;28;20226;-66
2023/07/20 00:08:17;;;;;;;4.60;2.30;;;;;;;18.55;59.72;150709.09;5000224;28;20230;-67
2023/07/20 00:10:44;;;;;;;4.73;2.63;;;;;;;18.54;59.54;150706.59;5003692;28;20222;-67
2023/07/20 00:13:12;;;;;;;4.30;2.50;;;;;;;18.43;59.71;150681.56;5000502;28;20283;-66
2023/07/20 00:15:39;;;;;;;4.27;2.70;;;;;;;18.39;61.28;150671.56;5004189;28;20281;-66
2023/07/20 00:18:06;;;;;;;6.87;2.53;;;;;;;18.26;61.67;150640.28;5001495;28;20228;-66
2023/07/20 00:20:33;;;;;;;5.90;2.37;;;;;;;18.17;62.10;150617.75;5004306;28;20694;-66
2023/07/20 00:22:59;;;;;;;5.63;2.90;;;;;;;18.10;62.45;150601.47;5000670;28;20235;-66
2023/07/20 00:25:26;;;;;;;3.97;2.40;;;;;;;18.07;62.91;150592.75;5005960;28;20287;-66
2023/07/20 00:27:52;;;;;;;5.57;2.23;;;;;;;18.06;63.98;150591.47;5004632;28;20720;-66
2023/07/20 00:30:22;;;;;;;4.40;2.20;;;;;;;18.02;65.41;150581.44;4993845;28;20223;-66
2023/07/20 00:32:48;;;;;;;7.90;2.40;;;;;;;17.94;64.72;150561.44;5003557;28;20611;-67
2023/07/20 00:35:16;;;;;;;8.93;2.43;;;;;;;17.84;64.81;150538.91;5000845;28;20222;-66
2023/07/20 00:37:43;;;;;;;5.13;2.53;;;;;;;17.79;65.80;150526.41;5003145;28;20212;-66
2023/07/20 00:40:10;;;;;;;6.23;2.37;;;;;;;17.69;67.54;150501.38;4995764;28;20215;-67
2023/07/20 00:42:37;;;;;;;6.00;2.30;;;;;;;17.60;67.74;150478.84;5002261;28;20239;-66
2023/07/20 00:45:04;;;;;;;6.73;2.53;;;;;;;17.48;66.97;150450.09;5000626;28;20772;-66
2023/07/20 00:47:33;;;;;;;6.07;2.40;;;;;;;17.38;67.72;150426.31;5003118;28;20633;-66
2023/07/20 00:50:00;;;;;;;4.80;2.40;;;;;;;17.33;68.59;150415.09;5008651;28;20232;-66
2023/07/20 00:52:29;;;;;;;4.43;2.33;;;;;;;17.24;68.28;150393.78;5002735;28;20245;-66
2023/07/20 00:54:57;;;;;;;5.93;2.20;;;;;;;17.20;68.12;150383.78;5003251;28;20814;-67
2023/07/20 00:57:25;;;;;;;2.73;2.10;;;;;;;17.17;69.85;150375.06;5003521;28;20234;-67
2023/07/20 00:59:52;;;;;;;5.70;2.33;;;;;;;17.18;69.71;150378.78;5005102;28;20269;-67
2023/07/20 01:02:19;;;;;;;3.67;2.37;;;;;;;17.10;71.14;150358.78;5002469;28;20738;-67
2023/07/20 01:04:46;;;;;;;8.23;2.73;;;;;;;17.03;71.53;150342.53;5006581;28;20289;-67
2023/07/20 01:07:18;;;;;;;3.47;2.07;;;;;;;16.93;72.27;150318.75;5004036;28;20231;-67
2023/07/20 01:09:49;;;;;;;5.97;2.17;;;;;;;16.86;72.33;150301.25;5005380;28;20282;-67
2023/07/20 01:12:23;;;;;;;7.20;2.30;;;;;;;16.78;72.60;150282.47;5001963;28;20235;-67
2023/07/20 01:14:51;;;;;;;6.20;2.27;;;;;;;16.71;74.06;150263.72;5004267;28;20308;-67
2023/07/20 01:17:17;;;;;;;3.17;2.03;;;;;;;16.67;75.68;150256.22;4993476;28;20251;-66
2023/07/20 01:19:44;;;;;;;3.47;2.20;;;;;;;16.59;73.53;150236.22;5004378;28;20709;-66
2023/07/20 01:22:27;;;;;;;7.60;2.30;;;;;;;16.53;76.36;150222.44;4997634;28;20706;-66
2023/07/20 01:25:22;;;;;;;4.37;2.30;;;;;;;16.41;76.39;150192.50;5005434;28;20689;-66
2023/07/20 01:28:20;;;;;;;5.20;2.10;;;;;;;16.30;76.80;150166.22;5001490;28;20246;-66
2023/07/20 01:31:00;;;;;;;6.43;2.37;;;;;;;16.23;75.99;150150.00;5001384;28;20225;-66
2023/07/20 01:33:30;;;;;;;4.50;2.40;;;;;;;16.18;76.42;150136.22;5002997;28;20615;-66
2023/07/20 01:35:59;;;;;;;5.50;2.20;;;;;;;16.14;77.37;150126.22;5006230;28;20233;-66
2023/07/20 01:38:26;;;;;;;3.43;2.30;;;;;;;16.08;79.60;150112.50;5001780;28;20288;-66
2023/07/20 01:40:53;;;;;;;2.50;2.00;;;;;;;15.99;79.39;150090.00;5004407;28;20233;-66
2023/07/20 01:43:21;;;;;;;5.67;2.30;;;;;;;16.02;79.27;150097.50;4987980;28;20237;-66
2023/07/20 01:45:47;;;;;;;4.83;2.20;;;;;;;15.91;80.16;150072.50;5004154;28;20313;-66
2023/07/20 01:48:14;;;;;;;3.63;2.40;;;;;;;15.85;80.03;150057.44;4993380;28;20234;-66
2023/07/20 01:50:44;;;;;;;4.30;2.33;;;;;;;15.82;80.74;150048.72;5005967;28;20232;-66
2023/07/20 01:53:11;;;;;;;5.23;2.47;;;;;;;15.75;81.57;150032.47;5001462;28;20698;-66
2023/07/20 01:55:37;;;;;;;3.90;2.47;;;;;;;15.69;83.11;150018.75;5004104;28;20238;-66
2023/07/20 01:58:05;;;;;;;4.57;2.20;;;;;;;15.60;82.66;149996.25;5008178;28;20230;-67
2023/07/20 02:00:32;;;;;;;4.17;2.23;;;;;;;15.47;84.04;149966.25;5004332;28;20237;-66
2023/07/20 02:02:59;;;;;;;4.30;2.70;;;;;;;15.48;83.24;149968.75;5003717;28;20240;-66
2023/07/20 02:05:26;;;;;;;10.90;2.20;;;;;;;15.47;82.94;149966.25;5002200;28;20233;-66
2023/07/20 02:07:54;;;;;;;4.60;2.30;;;;;;;15.47;83.46;149966.25;5003799;28;20224;-66
2023/07/20 02:10:20;;;;;;;4.37;2.20;;;;;;;15.50;84.12;149973.75;5008739;28;20660;-66
2023/07/20 02:12:47;;;;;;;3.00;2.37;;;;;;;15.50;86.50;149973.75;5005441;28;20240;-66
2023/07/20 02:15:16;;;;;;;3.43;2.30;;;;;;;15.53;86.59;149978.75;5001145;28;20226;-66
2023/07/20 02:17:43;;;;;;;5.37;2.50;;;;;;;15.50;86.90;149972.47;5003534;28;20237;-66
2023/07/20 02:20:10;;;;;;;6.83;2.63;;;;;;;15.48;86.33;149968.75;5000345;28;20231;-66
2023/07/20 02:22:37;;;;;;;4.50;2.40;;;;;;;15.45;85.65;149961.25;5004623;28;20236;-66
2023/07/20 02:25:07;;;;;;;5.67;2.40;;;;;;;15.55;85.73;149983.75;5016673;28;20224;-66
2023/07/20 02:27:33;;;;;;;5.10;2.70;;;;;;;15.55;86.20;149984.97;5019579;28;20237;-66
2023/07/20 02:30:00;;;;;;;5.47;2.33;;;;;;;15.62;86.19;150002.47;5000950;28;20236;-66
2023/07/20 02:32:27;;;;;;;6.83;2.60;;;;;;;15.75;86.97;150033.72;5003593;28;20240;-66
2023/07/20 02:34:54;;;;;;;7.50;2.93;;;;;;;15.70;86.85;150019.97;5005911;28;20314;-66
2023/07/20 02:37:20;;;;;;;4.10;2.53;;;;;;;15.79;84.47;150042.44;5002809;28;20217;-66
2023/07/20 02:39:47;;;;;;;6.43;2.50;;;;;;;15.80;82.89;150044.97;5005611;28;20229;-66
2023/07/20 02:42:15;;;;;;;4.13;2.30;;;;;;;15.84;82.48;150053.72;5002984;28;20604;-66
2023/07/20 02:44:42;;;;;;;3.80;2.30;;;;;;;15.87;82.96;150062.50;5003155;28;20269;-66
2023/07/20 02:47:08;;;;;;;5.57;2.37;;;;;;;15.92;82.85;150073.72;5000839;28;20218;-67
2023/07/20 02:49:35;;;;;;;4.73;2.40;;;;;;;15.93;83.44;150076.22;5002695;28;20229;-66
2023/07/20 02:52:02;;;;;;;3.87;2.27;;;;;;;15.98;84.53;150088.72;5002081;28;20453;-66
2023/07/20 02:54:31;;;;;;;3.93;2.53;;;;;;;15.99;85.18;150090.00;5003843;28;20605;-66
2023/07/20 02:56:57;;;;;;;6.10;2.37;;;;;;;16.02;84.88;150098.72;5005093;28;20328;-66
2023/07/20 02:59:25;;;;;;;4.53;2.30;;;;;;;16.07;84.63;150111.22;5000970;28;20238;-66
2023/07/20 03:01:52;;;;;;;5.00;2.87;;;;;;;16.13;83.65;150125.00;5003431;28;20253;-66
2023/07/20 03:04:19;;;;;;;7.67;2.40;;;;;;;16.12;84.21;150122.50;5001371;28;20264;-66
2023/07/20 03:06:49;;;;;;;3.50;2.20;;;;;;;16.12;84.23;150121.22;5018212;28;20783;-66
2023/07/20 03:09:16;;;;;;;4.27;2.10;;;;;;;16.13;83.29;150123.72;5000984;28;20234;-66
2023/07/20 03:11:43;;;;;;;4.40;2.43;;;;;;;16.17;82.01;150135.00;5003415;28;20311;-66
2023/07/20 03:14:12;;;;;;;11.30;2.43;;;;;;;16.16;83.03;150132.50;4999798;28;20298;-66
2023/07/20 03:16:40;;;;;;;5.83;2.37;;;;;;;16.14;83.49;150127.50;5003667;28;20673;-66
2023/07/20 03:19:07;;;;;;;2.70;2.10;;;;;;;16.20;84.89;150141.22;5000870;28;20232;-66
2023/07/20 03:21:40;;;;;;;3.23;2.37;;;;;;;16.20;84.02;150142.50;5003211;28;20265;-66
2023/07/20 03:24:08;;;;;;;5.07;2.60;;;;;;;16.18;84.33;150136.22;4995806;28;20268;-66
2023/07/20 03:26:35;;;;;;;3.70;2.57;;;;;;;16.19;85.44;150138.72;5019425;28;20263;-66
2023/07/20 03:29:02;;;;;;;4.40;2.20;;;;;;;16.22;84.71;150146.22;5000510;28;20248;-66
2023/07/20 03:31:28;;;;;;;5.43;2.30;;;;;;;16.20;85.52;150142.50;5208989;22;20236;-67
2023/07/20 03:33:56;;;;;;;4.67;2.53;;;;;;;16.20;85.60;150142.50;5021281;28;20237;-66
2023/07/20 03:36:23;;;;;;;4.57;2.37;;;;;;;16.15;85.40;150130.00;5016638;28;20313;-66
2023/07/20 03:38:50;;;;;;;5.97;2.47;;;;;;;16.17;87.03;150133.72;5022365;28;20237;-66
2023/07/20 03:41:17;;;;;;;4.53;2.30;;;;;;;16.20;86.70;150142.50;5004260;28;20237;-66
2023/07/20 03:43:44;;;;;;;5.50;2.77;;;;;;;16.20;88.68;150142.50;4993412;28;20233;-66
2023/07/20 03:46:10;;;;;;;5.60;2.80;;;;;;;16.16;87.65;150131.22;4998245;28;20324;-66
2023/07/20 03:48:39;;;;;;;5.77;2.30;;;;;;;16.18;87.32;150137.50;5002341;28;20250;-66
2023/07/20 03:51:07;;;;;;;4.60;2.50;;;;;;;16.15;87.03;150128.72;4991152;28;20234;-67
2023/07/20 03:53:33;;;;;;;6.97;2.00;;;;;;;16.18;86.31;150136.22;4991965;28;20226;-66
2023/07/20 03:56:00;;;;;;;6.63;2.27;;;;;;;16.22;86.05;150147.50;4996780;28;20233;-66
2023/07/20 03:58:27;;;;;;;5.77;2.30;;;;;;;16.29;86.32;150163.72;4993905;28;20230;-66
2023/07/20 04:00:54;;;;;;;5.93;2.10;;;;;;;16.33;85.65;150172.50;4992080;28;20317;-66
2023/07/20 04:03:20;;;;;;;4.00;2.17;;;;;;;16.36;85.75;150180.00;5000170;28;20243;-66
2023/07/20 04:05:48;;;;;;;6.87;2.40;;;;;;;16.41;86.05;150191.22;4995464;28;20232;-66
2023/07/20 04:08:16;;;;;;;3.00;2.13;;;;;;;16.44;85.96;150199.94;4994770;28;20231;-66
2023/07/20 04:10:45;;;;;;;5.73;2.80;;;;;;;16.48;85.03;150208.72;4989591;28;20235;-66
2023/07/20 04:13:11;;;;;;;7.73;2.23;;;;;;;16.52;84.82;150219.94;4989953;28;20733;-66
2023/07/20 04:15:38;;;;;;;5.20;2.37;;;;;;;16.57;84.15;150229.94;4991719;28;20237;-66
2023/07/20 04:18:04;;;;;;;5.60;2.30;;;;;;;16.53;83.59;150221.22;5000846;28;20479;-66
2023/07/20 04:20:31;;;;;;;11.30;2.23;;;;;;;16.64;84.77;150248.72;4999173;28;20873;-66
2023/07/20 04:22:57;;;;;;;4.53;2.10;;;;;;;16.68;84.61;150258.72;5001912;28;20242;-66
2023/07/20 04:25:27;;;;;;;4.37;2.20;;;;;;;16.70;84.92;150262.47;4991993;28;20223;-66
2023/07/20 04:27:53;;;;;;;4.23;2.13;;;;;;;16.74;83.81;150271.22;4991408;28;20700;-66
2023/07/20 04:30:21;;;;;;;4.73;2.50;;;;;;;16.76;84.03;150276.22;4998294;28;20239;-66
2023/07/20 04:32:48;;;;;;;6.83;2.07;;;;;;;16.83;83.04;150294.97;5003589;28;20236;-66
2023/07/20 04:35:18;;;;;;;5.60;2.10;;;;;;;16.89;83.10;150307.47;5001737;28;20586;-66
2023/07/20 04:37:46;;;;;;;4.17;2.13;;;;;;;16.94;83.28;150321.25;4991301;28;20237;-66
2023/07/20 04:40:17;;;;;;;4.77;2.40;;;;;;;17.03;82.01;150341.25;5000541;28;20230;-66
2023/07/20 04:42:45;;;;;;;3.83;2.33;;;;;;;17.15;82.73;150371.28;5000069;28;20234;-66
2023/07/20 04:45:11;;;;;;;4.87;2.37;;;;;;;17.24;82.92;150393.78;4987624;28;20238;-66
2023/07/20 04:47:38;;;;;;;3.50;2.30;;;;;;;17.31;82.59;150410.06;5002842;28;20377;-66
2023/07/20 04:50:06;;;;;;;3.50;2.13;;;;;;;17.39;82.43;150428.81;4993124;28;20301;-66
2023/07/20 04:52:33;;;;;;;4.83;2.20;;;;;;;17.40;82.24;150431.31;4993764;28;20243;-66
2023/07/20 04:54:59;;;;;;;3.73;2.30;;;;;;;17.39;81.65;150430.09;4993895;28;20243;-66
2023/07/20 04:57:26;;;;;;;3.17;2.37;;;;;;;17.48;81.18;150451.34;5003030;28;20611;-66
2023/07/20 04:59:54;;;;;;;4.33;2.10;;;;;;;17.52;82.79;150461.34;4997330;28;20242;-66
2023/07/20 05:02:21;;;;;;;3.43;2.27;;;;;;;17.62;83.18;150485.09;5008996;28;20343;-66
2023/07/20 05:04:48;;;;;;;6.00;2.50;;;;;;;17.70;80.68;150505.09;4996724;28;20372;-66
2023/07/20 05:07:14;;;;;;;2.90;2.10;;;;;;;17.82;80.57;150532.63;4990667;28;20319;-66
2023/07/20 05:09:41;;;;;;;4.00;2.17;;;;;;;17.92;79.61;150557.66;4994234;28;20435;-66
2023/07/20 05:12:08;;;;;;;3.83;2.53;;;;;;;18.00;78.40;150577.72;5001248;28;20234;-66
2023/07/20 05:14:36;;;;;;;6.00;2.70;;;;;;;18.13;78.08;150607.75;4992147;28;20362;-67
2023/07/20 05:17:04;;;;;;;5.60;2.30;;;;;;;18.25;77.80;150636.50;4991274;28;20228;-66
2023/07/20 05:19:31;;;;;;;2.80;2.00;;;;;;;18.22;77.32;150629.00;5001555;28;20235;-66
2023/07/20 05:21:57;;;;;;;4.83;2.40;;;;;;;18.27;78.32;150641.50;5001280;28;20223;-66
2023/07/20 05:24:24;;;;;;;4.27;2.10;;;;;;;18.37;77.65;150666.56;4995567;28;20236;-67
2023/07/20 05:26:52;;;;;;;4.13;2.60;;;;;;;18.52;76.87;150701.59;4990103;28;20234;-66
2023/07/20 05:29:19;;;;;;;6.50;2.60;;;;;;;18.70;77.00;150746.66;4987120;28;20576;-66
2023/07/20 05:31:52;;;;;;;4.40;2.23;;;;;;;18.74;70.42;150756.66;4990890;28;20231;-66
2023/07/20 05:34:20;;;;;;;6.80;2.33;;;;;;;18.65;71.47;150734.13;4989313;28;20277;-66
2023/07/20 05:36:52;;;;;;;7.43;2.37;;;;;;;18.70;73.47;150746.66;4998153;28;20236;-66
2023/07/20 05:39:19;;;;;;;4.57;2.43;;;;;;;18.76;68.89;150760.41;4993795;28;20223;-66
2023/07/20 05:42:10;;;;;;;6.17;3.00;;;;;;;19.01;64.91;150820.53;4991228;28;20231;-66
2023/07/20 05:44:36;;;;;;;3.83;2.20;;;;;;;18.98;65.35;150814.31;4995095;28;20224;-66
2023/07/20 05:47:03;;;;;;;4.47;2.27;;;;;;;19.07;64.52;150835.56;4991919;28;20217;-66
2023/07/20 05:49:31;;;;;;;6.33;2.60;;;;;;;19.06;66.02;150833.06;4994390;28;20243;-66
2023/07/20 05:51:58;;;;;;;6.30;2.77;;;;;;;19.11;63.92;150844.31;4991475;28;20246;-66
2023/07/20 05:54:25;;;;;;;8.13;2.47;;;;;;;19.06;65.10;150833.06;4991072;28;20297;-66
2023/07/20 05:56:53;;;;;;;3.93;2.57;;;;;;;19.06;65.53;150831.84;4994148;28;20230;-66
2023/07/20 05:59:20;;;;;;;6.27;2.90;;;;;;;18.95;64.61;150805.47;4985659;28;24175;-66
2023/07/20 06:01:52;;;;;;;4.93;2.60;;;;;;;19.04;64.46;150828.06;4993397;28;20310;-66
2023/07/20 06:04:19;;;;;;;7.13;2.60;;;;;;;19.10;64.13;150841.81;4990710;28;20231;-66
2023/07/20 06:06:51;;;;;;;4.73;2.80;;;;;;;19.22;64.51;150870.63;4994783;28;20238;-67
2023/07/20 06:09:17;;;;;;;5.10;2.80;;;;;;;19.30;63.02;150890.66;4991308;28;20232;-67
2023/07/20 06:11:44;;;;;;;4.83;2.60;;;;;;;19.32;63.93;150895.69;4993439;28;20287;-67
2023/07/20 06:14:10;;;;;;;5.90;2.70;;;;;;;19.37;63.88;150908.19;4992469;28;20231;-67
2023/07/20 06:16:37;;;;;;;4.80;2.73;;;;;;;19.51;62.64;150940.75;4994623;28;20290;-67
2023/07/20 06:19:03;;;;;;;9.27;3.10;;;;;;;19.39;62.99;150911.94;4990573;28;20293;-67
2023/07/20 06:21:30;;;;;;;8.03;2.70;;;;;;;19.48;62.95;150934.47;4991505;28;20239;-67
2023/07/20 06:23:58;;;;;;;7.83;2.67;;;;;;;19.39;63.27;150911.94;4993861;28;20239;-67
2023/07/20 06:26:25;;;;;;;5.07;2.73;;;;;;;19.55;63.19;150950.78;4989303;28;20280;-67
2023/07/20 06:28:51;;;;;;;6.13;2.60;;;;;;;19.73;63.14;150994.59;4991153;28;20225;-67
2023/07/20 06:31:21;;;;;;;3.63;2.30;;;;;;;19.90;62.09;151037.22;4991154;28;20338;-66
2023/07/20 06:33:47;;;;;;;4.80;2.80;;;;;;;20.12;61.83;151089.84;4994066;28;20227;-68
2023/07/20 06:36:14;;;;;;;4.00;2.60;;;;;;;20.32;60.93;151138.69;4990799;28;20279;-66
2023/07/20 06:38:41;;;;;;;8.73;2.60;;;;;;;20.48;60.33;151177.50;4991589;28;20298;-66
2023/07/20 06:41:08;;;;;;;6.60;2.67;;;;;;;20.54;59.66;151191.31;4988234;28;20715;-66
2023/07/20 06:43:35;;;;;;;5.50;2.80;;;;;;;20.57;60.52;151197.56;4993618;28;20232;-66
2023/07/20 06:46:02;;;;;;;10.00;2.73;;;;;;;20.45;60.55;151170.00;4990824;28;20226;-66
2023/07/20 06:48:29;;;;;;;7.73;2.57;;;;;;;20.33;62.50;151141.19;4992632;28;20236;-66
2023/07/20 06:50:56;;;;;;;5.77;2.60;;;;;;;20.29;61.37;151129.88;4993920;28;20837;-66
2023/07/20 06:53:22;;;;;;;7.03;2.63;;;;;;;20.15;62.26;151096.09;4992089;28;20317;-66
2023/07/20 06:55:49;;;;;;;8.70;2.50;;;;;;;20.16;61.52;151099.81;4990401;28;20244;-66
2023/07/20 06:58:17;;;;;;;4.50;2.33;;;;;;;20.23;61.44;151116.13;4989692;28;20291;-67
2023/07/20 07:00:44;;;;;;;10.23;2.53;;;;;;;20.21;61.91;151111.13;4991527;28;20226;-67
2023/07/20 07:03:11;;;;;;;3.57;2.10;;;;;;;20.29;59.22;151131.16;4988286;28;20238;-63
2023/07/20 07:05:38;;;;;;;6.23;2.33;;;;;;;20.23;59.91;151116.13;4991288;28;20235;-65
2023/07/20 07:08:05;;;;;;;5.63;2.20;;;;;;;20.24;62.10;151118.63;4988769;28;20373;-65
2023/07/20 07:10:32;;;;;;;6.80;2.60;;;;;;;20.44;60.05;151167.47;4988040;28;20234;-65
2023/07/20 07:12:58;;;;;;;7.30;3.93;;;;;;;20.34;60.63;151142.41;4990302;28;20252;-65
2023/07/20 07:15:27;;;;;;;5.30;2.30;;;;;;;20.64;60.22;151215.09;4990920;28;20239;-65
2023/07/20 07:17:53;;;;;;;7.00;2.63;;;;;;;20.86;59.68;151269.03;4990427;28;20342;-65
2023/07/20 07:20:20;;;;;;;4.83;2.50;;;;;;;20.87;58.58;151270.28;4987021;28;20240;-65
2023/07/20 07:22:47;;;;;;;3.43;2.00;;;;;;;21.09;58.72;151324.16;4993577;28;20232;-65
2023/07/20 07:25:15;;;;;;;3.60;1.77;;;;;;;21.19;57.17;151349.25;4998384;28;20233;-65
2023/07/20 07:27:41;;;;;;;2.67;1.53;;;;;;;21.19;55.75;151349.25;4993241;28;20244;-65
2023/07/20 07:30:08;;;;;;;5.43;1.77;;;;;;;21.19;56.23;151349.25;4993141;28;20265;-65
2023/07/20 07:32:36;;;;;;;3.47;1.50;;;;;;;21.26;54.94;151365.50;4989090;28;20715;-65
2023/07/20 07:35:04;;;;;;;5.07;1.57;;;;;;;21.10;54.99;151326.69;4984854;28;20827;-65
2023/07/20 07:37:30;;;;;;;2.43;1.60;;;;;;;21.16;56.34;151341.72;4991216;28;20257;-65
2023/07/20 07:39:57;;;;;;;7.60;1.77;;;;;;;21.12;55.09;151331.69;4994966;28;20227;-65
2023/07/20 07:42:24;;;;;;;6.03;2.00;;;;;;;21.10;56.38;151326.69;4996141;28;20244;-65
2023/07/20 07:44:50;;;;;;;5.57;2.30;;;;;;;21.01;56.09;151305.38;4998177;28;20230;-65
2023/07/20 07:47:17;;;;;;;2.93;1.80;;;;;;;20.89;57.10;151276.53;4993012;28;20238;-65
2023/07/20 07:49:45;;;;;;;3.67;1.87;;;;;;;20.74;57.31;151240.16;4998717;28;20273;-65
2023/07/20 07:52:11;;;;;;;3.67;1.90;;;;;;;20.70;57.63;151230.13;4994783;28;20599;-65
2023/07/20 07:54:38;;;;;;;4.47;1.77;;;;;;;20.87;55.70;151271.53;4998269;28;20695;-65
2023/07/20 07:57:05;;;;;;;5.63;1.90;;;;;;;20.93;57.25;151286.56;4989156;28;20630;-65
2023/07/20 07:59:36;;;;;;;5.83;1.90;;;;;;;21.00;58.00;151301.59;4997470;28;20228;-65
2023/07/20 08:02:03;;;;;;;8.00;2.00;;;;;;;21.09;56.60;151325.44;4994747;28;20222;-65
2023/07/20 08:04:29;;;;;;;4.50;1.80;;;;;;;21.19;55.59;151348.00;4995035;28;20226;-65
2023/07/20 08:06:57;;;;;;;4.23;2.03;;;;;;;21.01;55.61;151305.38;4993683;28;20539;-65
2023/07/20 08:09:24;;;;;;;4.73;2.10;;;;;;;20.91;57.46;151280.31;4994712;28;20295;-65
2023/07/20 08:11:52;;;;;;;9.87;2.50;;;;;;;21.17;57.59;151344.22;4996136;28;20234;-65
2023/07/20 08:14:20;;;;;;;6.27;2.07;;;;;;;21.22;57.95;151355.47;4990178;28;20709;-65
2023/07/20 08:16:52;;;;;;;3.80;2.03;;;;;;;21.43;56.66;151405.63;4991688;28;20263;-65
2023/07/20 08:19:20;;;;;;;3.97;1.90;;;;;;;21.54;54.86;151433.22;4993245;28;20232;-65
2023/07/20 08:21:52;;;;;;;4.97;2.30;;;;;;;21.48;56.58;151418.16;4997509;28;20333;-65
2023/07/20 08:24:20;;;;;;;5.67;1.97;;;;;;;21.44;56.30;151408.13;4993337;28;20634;-65
2023/07/20 08:26:52;;;;;;;6.57;2.23;;;;;;;21.74;56.53;151480.91;4996644;28;20268;-65
2023/07/20 08:29:19;;;;;;;9.70;2.33;;;;;;;21.85;55.31;151507.22;4999254;28;20229;-65
2023/07/20 08:31:45;;;;;;;5.80;2.40;;;;;;;22.14;54.69;151578.72;4995831;28;20239;-65
2023/07/20 08:34:12;;;;;;;5.50;2.23;;;;;;;22.11;55.36;151571.19;4992002;28;20240;-65
2023/07/20 08:36:38;;;;;;;5.47;2.20;;;;;;;22.47;51.87;151657.78;4995702;28;20726;-65
2023/07/20 08:39:05;;;;;;;5.47;2.20;;;;;;;22.66;53.38;151705.44;4989700;28;20814;-65
2023/07/20 08:41:35;;;;;;;5.37;2.30;;;;;;;22.77;51.43;151731.78;4995070;28;21251;-65
2023/07/20 08:44:02;;;;;;;4.50;2.20;;;;;;;22.31;52.80;151618.81;4995107;28;20222;-65
2023/07/20 08:46:29;;;;;;;4.87;2.30;;;;;;;22.01;53.37;151546.13;4992344;28;20227;-65
2023/07/20 08:48:57;;;;;;;9.43;2.77;;;;;;;22.36;52.42;151631.34;4996294;28;20292;-66
2023/07/20 08:51:25;;;;;;;7.70;2.20;;;;;;;22.10;52.93;151568.69;4987107;28;20253;-64
2023/07/20 08:53:53;;;;;;;5.57;2.47;;;;;;;22.57;52.85;151682.84;4994858;28;20653;-65
2023/07/20 08:56:21;;;;;;;4.30;2.30;;;;;;;22.42;52.96;151646.41;4995503;28;20652;-65
2023/07/20 08:58:50;;;;;;;18.90;3.70;;;;;;;22.74;52.78;151724.22;4996532;28;20232;-65
2023/07/20 09:01:19;;;;;;;5.30;2.53;;;;;;;22.12;54.54;151574.94;4986449;28;20289;-65
2023/07/20 09:03:46;;;;;;;5.30;2.23;;;;;;;22.39;53.11;151640.16;4998617;28;20305;-65
2023/07/20 09:06:13;;;;;;;4.83;2.00;;;;;;;22.48;52.08;151661.50;4988302;28;20238;-65
2023/07/20 09:08:40;;;;;;;2.87;1.80;;;;;;;22.96;52.32;151776.94;4990923;28;20227;-65
2023/07/20 09:11:07;;;;;;;5.57;2.00;;;;;;;22.71;52.95;151716.72;4990557;28;20235;-65
2023/07/20 09:13:33;;;;;;;6.30;1.80;;;;;;;22.71;50.81;151716.72;4994433;28;20243;-65
2023/07/20 09:16:03;;;;;;;5.70;1.87;;;;;;;23.06;50.34;151800.75;4990595;28;20243;-65
2023/07/20 09:18:31;;;;;;;5.67;1.87;;;;;;;23.23;51.55;151842.22;4993662;28;20234;-65
2023/07/20 09:21:03;;;;;;;3.10;1.80;;;;;;;23.30;50.44;151859.81;4993633;28;20253;-65
2023/07/20 09:23:32;;;;;;;3.57;1.57;;;;;;;23.22;49.75;151839.69;4990082;28;20600;-65
2023/07/20 09:25:59;;;;;;;4.03;1.73;;;;;;;23.46;50.39;151898.69;4993743;28;20235;-65
2023/07/20 09:28:25;;;;;;;4.03;1.83;;;;;;;23.22;49.38;151840.91;4990144;28;20234;-65
2023/07/20 09:30:52;;;;;;;3.00;1.90;;;;;;;23.23;48.52;151843.47;4992519;28;20255;-65
2023/07/20 09:33:23;;;;;;;2.17;1.70;;;;;;;22.45;51.51;151653.97;4991140;28;20231;-65
2023/07/20 09:35:50;;;;;;;4.37;1.60;;;;;;;22.15;50.22;151581.22;4995744;28;20240;-65
2023/07/20 09:38:17;;;;;;;2.47;1.70;;;;;;;22.53;51.16;151672.81;4989953;28;20244;-65
2023/07/20 09:40:43;;;;;;;2.20;1.40;;;;;;;22.66;48.08;151704.16;4995802;28;20258;-65
2023/07/20 09:43:10;;;;;;;5.00;1.80;;;;;;;22.36;49.43;151632.63;4990595;28;20223;-65
2023/07/20 09:45:41;;;;;;;4.03;1.60;;;;;;;22.53;49.25;151672.81;4996668;28;20308;-65
2023/07/20 09:48:09;;;;;;;4.40;1.77;;;;;;;22.75;47.79;151726.75;4989763;28;20277;-65
2023/07/20 09:50:41;;;;;;;4.33;1.57;;;;;;;22.91;46.21;151765.63;4995569;28;20264;-65
2023/07/20 09:53:08;;;;;;;3.03;1.43;;;;;;;22.90;44.75;151763.09;4994600;28;21002;-65
2023/07/20 09:55:35;;;;;;;2.13;1.30;;;;;;;23.34;43.37;151868.56;4995971;28;20385;-65
2023/07/20 09:58:03;;;;;;;3.33;1.63;;;;;;;23.28;43.96;151854.78;4991297;28;20247;-65
2023/07/20 10:00:30;;;;;;;3.57;1.50;;;;;;;23.18;44.77;151829.63;4992918;28;20267;-65
2023/07/20 10:02:59;;;;;;;3.90;1.70;;;;;;;23.29;44.48;151857.28;4992295;28;20570;-65
2023/07/20 10:05:28;;;;;;;4.03;1.47;;;;;;;23.49;44.21;151904.94;4988489;28;20314;-65
2023/07/20 10:07:58;;;;;;;34.87;3.30;;;;;;;23.29;42.95;151857.28;4996494;28;20220;-65
2023/07/20 10:10:26;;;;;;;4.37;1.60;;;;;;;23.13;43.55;151818.31;4999990;28;20235;-65
2023/07/20 10:12:52;;;;;;;3.23;1.30;;;;;;;23.28;43.96;151854.78;4990587;28;20875;-65
2023/07/20 10:15:24;;;;;;;3.20;1.50;;;;;;;23.39;43.85;151882.34;4991141;28;20240;-65
2023/07/20 10:18:03;;;;;;;5.90;1.60;;;;;;;23.79;44.76;151977.75;4994282;28;20405;-65
2023/07/20 10:20:30;;;;;;;4.10;1.50;;;;;;;23.84;42.84;151991.56;4989321;28;20235;-65
2023/07/20 10:22:59;;;;;;;4.87;1.60;;;;;;;23.96;43.38;152019.13;4989414;28;20307;-65
2023/07/20 10:25:25;;;;;;;2.83;1.77;;;;;;;23.85;41.84;151992.81;4990985;28;20708;-65
2023/07/20 10:27:52;;;;;;;3.23;1.57;;;;;;;23.58;40.94;151927.53;4993218;28;20232;-65
2023/07/20 10:30:20;;;;;;;2.90;1.30;;;;;;;23.66;41.01;151947.63;4993253;28;20292;-65
2023/07/20 10:32:48;;;;;;;6.33;1.53;;;;;;;23.84;42.02;151991.56;4992155;28;20263;-65
2023/07/20 10:35:15;;;;;;;4.67;1.67;;;;;;;23.62;42.12;151937.56;4990478;28;20249;-65
2023/07/20 10:37:50;;;;;;;2.90;1.40;;;;;;;23.64;40.87;151942.59;4993573;28;20703;-65
2023/07/20 10:40:30;;;;;;;4.33;1.50;;;;;;;23.74;41.92;151966.47;4991957;28;20337;-65
2023/07/20 10:43:03;;;;;;;2.87;1.33;;;;;;;24.00;42.49;152029.25;4993920;28;20232;-65
2023/07/20 10:45:49;;;;;;;2.80;1.53;;;;;;;24.27;40.45;152094.53;4989773;28;20283;-65
2023/07/20 10:48:17;;;;;;;3.90;1.40;;;;;;;24.27;42.26;152095.81;4988895;28;20291;-65
2023/07/20 10:50:44;;;;;;;4.80;1.30;;;;;;;24.34;42.29;152112.09;4993269;28;20243;-65
2023/07/20 10:53:13;;;;;;;3.63;1.40;;;;;;;24.07;40.94;152046.81;4985985;28;20341;-65
2023/07/20 10:55:41;;;;;;;3.73;1.27;;;;;;;24.01;40.47;152033.03;4989263;28;20219;-65
2023/07/20 10:58:14;;;;;;;2.20;1.50;;;;;;;24.25;39.50;152090.78;4985523;28;20233;-65
2023/07/20 11:00:59;;;;;;;4.23;1.57;;;;;;;24.18;39.91;152073.19;4992137;28;20233;-65
2023/07/20 11:03:30;;;;;;;2.53;1.40;;;;;;;24.38;39.06;152120.91;4990779;28;20243;-65
2023/07/20 11:05:57;;;;;;;2.50;1.13;;;;;;;24.58;38.04;152169.88;4989312;28;20579;-65
2023/07/20 11:08:39;;;;;;;2.83;1.33;;;;;;;24.06;39.96;152044.31;4992146;28;20224;-65
2023/07/20 11:11:26;;;;;;;2.27;1.20;;;;;;;24.72;39.09;152203.75;4990930;28;20692;-65
2023/07/20 11:13:58;;;;;;;4.00;1.53;;;;;;;24.69;39.50;152197.50;4996214;28;20264;-65
2023/07/20 11:16:41;;;;;;;1.83;1.30;;;;;;;24.63;40.07;152182.41;4991938;28;20729;-65
2023/07/20 11:19:16;;;;;;;2.37;1.33;;;;;;;24.84;39.18;152232.72;4992607;28;20242;-65
2023/07/20 11:21:44;;;;;;;3.60;1.30;;;;;;;24.62;39.76;152181.16;4992536;28;20232;-65
2023/07/20 11:24:13;;;;;;;1.73;1.27;;;;;;;24.37;40.65;152119.63;4996529;28;20226;-65
2023/07/20 11:26:45;;;;;;;1.60;1.10;;;;;;;24.08;40.60;152049.31;4995340;28;20235;-65
2023/07/20 11:29:13;;;;;;;2.83;1.57;;;;;;;24.43;39.49;152133.41;4994052;28;20277;-65